Time;durP1;ratioP1;P1;durP2;ratioP2;P2;SDS_P1;SDS_P2;PMS_P1;PMS_P2;Temp;Humidity;BMP_temperature;BMP_pressure;BME280_temperature;BME280_humidity;BME280_pressure;Samples;Min_cycle;Max_cycle;Signal;HPM_P1;HPM_P2
2024/02/14 00:00:13;;;;;;;6.43;5.33;;;5.90;68.50;;;7.63;52.25;98007.41;4843023;29;20478;-60
2024/02/14 00:02:44;;;;;;;7.27;4.80;;;5.90;68.80;;;7.63;52.27;98015.38;4841707;29;20413;-60
2024/02/14 00:05:12;;;;;;;7.97;3.70;;;5.90;68.70;;;7.64;52.27;98016.22;4842457;29;20058;-61
2024/02/14 00:07:40;;;;;;;4.87;3.10;;;5.90;69.00;;;7.65;52.23;98017.88;4842118;29;20064;-60
2024/02/14 00:10:08;;;;;;;4.00;3.30;;;5.90;68.70;;;7.65;52.31;98017.88;4842521;29;20053;-60
2024/02/14 00:12:36;;;;;;;7.57;3.80;;;5.90;68.80;;;7.62;52.38;98013.69;4842640;29;20399;-60
2024/02/14 00:15:07;;;;;;;7.10;3.37;;;5.80;68.90;;;7.61;52.08;98012.00;4842370;29;20050;-61
2024/02/14 00:17:35;;;;;;;4.93;3.33;;;5.80;69.10;;;7.60;52.44;98013.00;4825898;29;20069;-60
2024/02/14 00:20:04;;;;;;;5.70;3.13;;;5.80;69.40;;;7.62;52.65;98018.16;4842224;29;20061;-60
2024/02/14 00:22:32;;;;;;;4.90;3.10;;;5.80;69.10;;;7.64;52.50;98019.72;4826101;29;20041;-60
2024/02/14 00:25:00;;;;;;;6.10;2.70;;;6.00;69.10;;;7.69;52.57;98017.47;4842878;29;20053;-60
2024/02/14 00:27:28;;;;;;;3.97;3.43;;;6.00;69.10;;;7.74;52.89;98018.91;4818724;29;20057;-61
2024/02/14 00:29:56;;;;;;;4.23;2.67;;;6.10;68.60;;;7.82;52.55;98019.91;4842498;29;20046;-60
2024/02/14 00:32:23;;;;;;;5.13;3.40;;;6.20;68.50;;;7.87;52.49;98023.00;4840992;29;20050;-61
2024/02/14 00:34:52;;;;;;;4.83;3.83;;;6.30;68.10;;;7.92;52.52;98022.56;4842214;29;20061;-60
2024/02/14 00:37:20;;;;;;;5.00;2.80;;;6.30;68.30;;;7.97;52.54;98016.84;4841736;29;20049;-60
2024/02/14 00:39:49;;;;;;;5.07;2.97;;;6.30;68.30;;;8.03;52.70;98021.66;4842652;29;20086;-60
2024/02/14 00:42:17;;;;;;;4.77;2.80;;;6.40;68.10;;;8.09;52.42;98013.97;4841752;29;20046;-60
2024/02/14 00:44:45;;;;;;;4.70;3.20;;;6.50;67.70;;;8.13;52.19;98019.84;4841626;29;20539;-61
2024/02/14 00:47:12;;;;;;;5.33;3.77;;;6.50;67.50;;;8.16;52.16;98026.69;4840875;29;20046;-61
2024/02/14 00:49:40;;;;;;;7.63;3.33;;;6.50;67.40;;;8.17;52.00;98023.06;4841687;29;20049;-60
2024/02/14 00:52:09;;;;;;;7.17;3.53;;;6.50;67.80;;;8.19;51.82;98029.06;4841714;29;20070;-60
2024/02/14 00:54:36;;;;;;;5.63;3.70;;;6.50;67.70;;;8.20;52.01;98028.94;4825617;29;20056;-60
2024/02/14 00:57:05;;;;;;;9.10;4.67;;;6.50;67.50;;;8.25;51.85;98026.69;4841265;29;20426;-61
2024/02/14 00:59:33;;;;;;;5.77;2.90;;;6.60;67.30;;;8.30;51.80;98021.00;4841478;29;20060;-60
2024/02/14 01:02:00;;;;;;;6.00;2.67;;;6.60;67.20;;;8.32;51.82;98023.50;4817758;29;20057;-61
2024/02/14 01:04:28;;;;;;;3.93;2.20;;;6.60;67.30;;;8.32;51.70;98026.13;4841526;29;20046;-60
2024/02/14 01:06:55;;;;;;;5.73;2.97;;;6.60;66.70;;;8.32;51.44;98029.66;4837105;29;20530;-61
2024/02/14 01:09:23;;;;;;;6.23;2.63;;;6.60;67.20;;;8.38;51.55;98039.72;4841413;29;20045;-61
2024/02/14 01:11:51;;;;;;;5.07;2.83;;;6.70;66.80;;;8.34;51.33;98032.19;4841444;29;20106;-61
2024/02/14 01:14:18;;;;;;;5.10;2.80;;;6.60;66.80;;;8.34;51.34;98042.78;4841220;29;20074;-60
2024/02/14 01:16:46;;;;;;;3.90;2.50;;;6.70;66.70;;;8.34;51.39;98034.84;4840953;29;20080;-60
2024/02/14 01:19:14;;;;;;;6.13;2.80;;;6.70;66.60;;;8.35;51.43;98036.50;4817642;29;20426;-60
2024/02/14 01:21:42;;;;;;;5.27;2.90;;;6.70;66.90;;;8.38;51.62;98030.91;4841124;29;20056;-61
2024/02/14 01:24:10;;;;;;;3.00;2.20;;;6.70;66.70;;;8.40;51.64;98024.50;4840733;29;20046;-61
2024/02/14 01:26:37;;;;;;;5.47;2.23;;;6.70;66.40;;;8.36;51.48;98022.25;4824712;29;20053;-60
2024/02/14 01:29:05;;;;;;;4.20;2.50;;;6.70;66.60;;;8.38;51.68;98028.28;4841080;29;20506;-60
2024/02/14 01:31:34;;;;;;;5.37;3.60;;;6.70;66.80;;;8.41;51.43;98028.88;4841139;29;20053;-60
2024/02/14 01:34:02;;;;;;;4.60;2.20;;;6.70;66.90;;;8.42;51.48;98027.88;4840946;29;20058;-60
2024/02/14 01:36:30;;;;;;;4.03;2.47;;;6.70;66.60;;;8.44;51.22;98012.66;4840268;29;20053;-61
2024/02/14 01:38:58;;;;;;;4.83;2.30;;;6.80;66.20;;;8.46;51.31;98016.00;4840842;29;20054;-60
2024/02/14 01:41:26;;;;;;;5.20;2.50;;;6.80;66.50;;;8.47;51.21;98012.38;4841248;29;20430;-60
2024/02/14 01:43:53;;;;;;;3.13;2.20;;;6.80;66.30;;;8.52;51.22;98001.34;4824640;29;20054;-60
2024/02/14 01:46:21;;;;;;;5.40;2.50;;;6.90;66.50;;;8.56;51.16;98008.03;4840415;29;20054;-60
2024/02/14 01:48:49;;;;;;;4.93;2.37;;;6.90;66.30;;;8.57;51.35;98009.75;4840863;29;20041;-60
2024/02/14 01:51:21;;;;;;;4.27;2.50;;;6.90;66.50;;;8.62;50.87;98007.47;4824786;29;20054;-60
2024/02/14 01:53:49;;;;;;;4.47;2.30;;;6.90;66.20;;;8.63;51.18;98016.31;4825294;29;20045;-60
2024/02/14 01:56:16;;;;;;;3.47;2.60;;;6.90;66.40;;;8.63;51.46;98013.66;4840069;29;20061;-60
2024/02/14 01:58:45;;;;;;;4.53;2.17;;;6.80;66.70;;;8.63;51.32;98005.69;4824714;29;20054;-60
2024/02/14 02:01:12;;;;;;;3.70;2.23;;;6.80;66.90;;;8.67;51.42;98001.78;4824546;29;20053;-61
2024/02/14 02:03:40;;;;;;;6.47;2.73;;;6.90;67.40;;;8.72;51.21;97996.03;4839335;29;20050;-60
2024/02/14 02:06:09;;;;;;;4.13;2.70;;;6.90;67.10;;;8.71;51.24;97997.84;4824253;29;20502;-60
2024/02/14 02:08:36;;;;;;;4.80;2.40;;;6.90;67.10;;;8.72;51.43;97986.25;4817086;29;20050;-60
2024/02/14 02:11:06;;;;;;;3.23;2.50;;;6.90;67.20;;;8.73;51.57;97989.75;4824381;29;20053;-60
2024/02/14 02:13:34;;;;;;;7.60;3.13;;;6.90;66.90;;;8.72;51.44;97993.38;4840511;29;20501;-60
2024/02/14 02:16:04;;;;;;;7.23;3.97;;;6.90;67.60;;;8.69;51.05;97988.38;4838524;29;20058;-60
2024/02/14 02:18:32;;;;;;;4.00;2.50;;;6.80;67.40;;;8.65;51.26;97985.97;4824726;29;20054;-60
2024/02/14 02:21:03;;;;;;;7.47;2.67;;;6.70;67.50;;;8.58;51.23;97986.69;4840427;29;20050;-60
2024/02/14 02:23:31;;;;;;;4.83;2.77;;;6.70;68.00;;;8.52;51.42;97987.25;4840176;29;20555;-61
2024/02/14 02:25:59;;;;;;;5.37;2.70;;;6.60;68.20;;;8.45;51.48;97979.00;4839952;29;20498;-60
2024/02/14 02:28:26;;;;;;;4.33;2.23;;;6.60;68.20;;;8.42;51.64;97979.28;4824181;29;20046;-60
2024/02/14 02:30:55;;;;;;;6.77;2.90;;;6.60;68.50;;;8.39;51.70;97975.03;4840155;29;20506;-60
2024/02/14 02:33:23;;;;;;;4.93;2.80;;;6.50;68.70;;;8.37;51.56;97979.66;4839974;29;20056;-60
2024/02/14 02:35:51;;;;;;;7.17;2.80;;;6.50;69.00;;;8.36;51.54;97977.16;4830659;29;20553;-60
2024/02/14 02:38:19;;;;;;;7.53;2.50;;;6.50;68.90;;;8.35;51.88;97988.75;4838219;29;20510;-60
2024/02/14 02:40:47;;;;;;;5.37;3.77;;;6.50;69.00;;;8.31;51.86;97976.72;4840238;29;20395;-60
2024/02/14 02:43:15;;;;;;;5.53;2.73;;;6.40;68.90;;;8.24;51.72;97964.03;4840002;29;20054;-60
2024/02/14 02:45:43;;;;;;;4.53;2.80;;;6.40;69.10;;;8.24;51.81;97971.16;4823583;29;20629;-61
2024/02/14 02:48:11;;;;;;;4.93;3.23;;;6.30;69.20;;;8.20;51.76;97959.97;4824119;29;20497;-60
2024/02/14 02:50:39;;;;;;;5.87;3.33;;;6.30;69.30;;;8.15;51.69;97958.72;4840232;29;20502;-60
2024/02/14 02:53:06;;;;;;;8.63;3.40;;;6.30;69.30;;;8.10;51.96;97951.16;4839827;29;20061;-60
2024/02/14 02:55:36;;;;;;;5.13;3.60;;;6.30;69.50;;;8.06;52.23;97944.47;4839667;29;20046;-60
2024/02/14 02:58:06;;;;;;;4.83;3.10;;;6.30;69.90;;;8.02;52.13;97951.00;4840352;29;20081;-60
2024/02/14 03:00:34;;;;;;;4.37;3.00;;;6.20;69.50;;;7.99;52.33;97964.56;4839872;29;20046;-61
2024/02/14 03:03:04;;;;;;;6.60;3.73;;;6.20;69.60;;;7.95;52.26;97969.28;4840097;29;20045;-60
2024/02/14 03:05:33;;;;;;;5.53;3.53;;;6.10;69.90;;;7.94;52.37;97972.91;4839722;29;20050;-60
2024/02/14 03:08:01;;;;;;;5.77;4.33;;;6.10;70.20;;;7.91;52.53;97975.00;4840079;29;20049;-60
2024/02/14 03:10:29;;;;;;;5.27;3.60;;;6.10;70.20;;;7.92;52.49;97968.72;4819301;29;20052;-60
2024/02/14 03:12:57;;;;;;;6.07;3.20;;;6.10;70.40;;;7.91;52.46;97969.69;4843395;29;20529;-60
2024/02/14 03:15:25;;;;;;;5.13;3.30;;;6.10;70.20;;;7.90;52.38;97971.50;4826852;29;20422;-60
2024/02/14 03:17:53;;;;;;;5.57;3.83;;;6.10;70.40;;;7.89;52.51;97968.03;4843673;29;20053;-60
2024/02/14 03:20:21;;;;;;;6.87;4.10;;;6.10;70.60;;;7.87;52.44;97967.31;4843411;29;20065;-61
2024/02/14 03:22:48;;;;;;;3.97;3.17;;;6.00;70.70;;;7.84;52.52;97967.59;4843256;29;20066;-60
2024/02/14 03:25:18;;;;;;;5.77;3.43;;;6.00;70.70;;;7.79;52.72;97971.63;4843527;29;20057;-60
2024/02/14 03:27:49;;;;;;;6.47;3.50;;;5.90;71.20;;;7.71;52.74;97976.75;4819806;29;20514;-60
2024/02/14 03:30:17;;;;;;;6.40;3.10;;;5.70;71.70;;;7.63;52.88;97975.63;4826907;29;20041;-60
2024/02/14 03:32:50;;;;;;;5.77;2.70;;;5.60;72.30;;;7.61;53.04;97972.25;4812378;29;20049;-60
2024/02/14 03:35:21;;;;;;;6.87;2.90;;;5.60;72.60;;;7.59;53.44;97983.97;4842815;29;20420;-60
2024/02/14 03:37:52;;;;;;;6.90;3.00;;;5.70;72.80;;;7.61;53.29;97984.69;4827105;29;20502;-60
2024/02/14 03:40:20;;;;;;;5.80;3.17;;;5.70;72.70;;;7.62;53.29;97986.38;4843449;29;20046;-60
2024/02/14 03:42:48;;;;;;;5.33;2.50;;;5.80;72.50;;;7.65;53.36;97981.63;4842759;29;20427;-60
2024/02/14 03:45:16;;;;;;;3.67;2.47;;;5.90;72.30;;;7.69;53.54;97982.19;4826433;29;20046;-60
2024/02/14 03:47:43;;;;;;;5.20;2.97;;;6.00;72.10;;;7.75;53.58;97983.47;4842737;29;20521;-60
2024/02/14 03:50:11;;;;;;;4.27;2.60;;;6.00;72.10;;;7.80;53.69;97983.91;4842889;29;20046;-60
2024/02/14 03:52:39;;;;;;;6.43;3.43;;;6.10;71.80;;;7.86;53.65;97981.53;4842889;29;20422;-60
2024/02/14 03:55:08;;;;;;;4.23;2.43;;;6.20;71.70;;;7.94;53.67;97978.22;4842962;29;20050;-60
2024/02/14 03:57:38;;;;;;;6.17;3.30;;;6.20;71.70;;;7.98;53.53;97982.25;4842362;29;20050;-61
2024/02/14 04:00:10;;;;;;;3.23;2.47;;;6.20;71.40;;;8.02;53.37;97983.66;4843024;29;20157;-60
2024/02/14 04:02:39;;;;;;;3.90;2.93;;;6.30;71.60;;;8.05;53.20;97977.28;4826323;29;20049;-60
2024/02/14 04:05:08;;;;;;;4.23;2.57;;;6.30;71.30;;;8.02;53.40;97990.78;4826662;29;20057;-60
2024/02/14 04:07:37;;;;;;;4.40;2.80;;;6.30;71.50;;;8.05;53.42;97993.19;4837798;29;20057;-60
2024/02/14 04:10:06;;;;;;;4.60;2.70;;;6.30;71.60;;;8.05;53.20;97994.00;4842326;29;20046;-60
2024/02/14 04:12:34;;;;;;;5.83;2.47;;;6.30;71.60;;;8.07;53.37;97993.88;4826374;29;20053;-60
2024/02/14 04:15:01;;;;;;;3.83;3.37;;;6.30;71.50;;;8.06;53.34;97995.69;4842584;29;20072;-60
2024/02/14 04:17:29;;;;;;;4.10;2.40;;;6.30;71.60;;;8.07;53.27;97994.72;4842179;29;20425;-60
2024/02/14 04:19:57;;;;;;;4.97;2.53;;;6.30;71.80;;;8.08;53.40;98000.84;4842428;29;20072;-60
2024/02/14 04:22:25;;;;;;;3.20;2.60;;;6.30;71.90;;;8.06;53.46;97998.34;4840714;29;20053;-60
2024/02/14 04:24:52;;;;;;;4.97;3.03;;;6.20;71.90;;;8.07;53.62;98002.66;4842311;29;20050;-60
2024/02/14 04:27:20;;;;;;;8.87;3.77;;;6.20;72.00;;;8.09;53.59;98002.53;4841814;29;20045;-60
2024/02/14 04:29:48;;;;;;;2.93;2.00;;;6.30;72.20;;;8.09;53.68;98010.50;4842183;29;20042;-60
2024/02/14 04:32:17;;;;;;;4.57;2.73;;;6.30;72.20;;;8.12;53.75;98007.53;4825992;29;20046;-60
2024/02/14 04:34:44;;;;;;;4.70;2.50;;;6.30;72.20;;;8.14;53.79;98007.41;4841654;29;20054;-60
2024/02/14 04:37:13;;;;;;;4.57;2.57;;;6.30;71.90;;;8.13;53.72;98001.28;4841778;29;20057;-60
2024/02/14 04:39:42;;;;;;;3.53;2.50;;;6.40;71.90;;;8.17;53.92;98007.16;4842021;29;20054;-60
2024/02/14 04:42:10;;;;;;;4.50;2.23;;;6.40;71.80;;;8.18;53.63;98009.69;4826120;29;20046;-60
2024/02/14 04:44:38;;;;;;;3.57;2.93;;;6.40;71.80;;;8.17;53.52;98005.34;4841844;29;20057;-60
2024/02/14 04:47:06;;;;;;;4.63;2.37;;;6.40;71.80;;;8.19;53.61;98000.72;4841358;29;20053;-60
2024/02/14 04:49:34;;;;;;;5.97;2.37;;;6.40;71.80;;;8.19;53.63;98007.84;4841722;29;20050;-60
2024/02/14 04:52:02;;;;;;;4.63;2.17;;;6.40;71.70;;;8.18;53.59;98004.38;4841911;29;20494;-60
2024/02/14 04:54:29;;;;;;;3.73;2.80;;;6.30;72.30;;;8.18;53.66;98004.38;4841671;29;20418;-60
2024/02/14 04:56:57;;;;;;;6.10;3.60;;;6.40;72.10;;;8.19;53.67;98011.34;4825235;29;20403;-60
2024/02/14 04:59:29;;;;;;;9.27;2.90;;;6.40;72.10;;;8.16;53.87;98008.13;4841624;29;20045;-60
2024/02/14 05:01:57;;;;;;;5.43;2.33;;;6.30;72.30;;;8.15;53.89;98009.09;4824969;29;20054;-60
2024/02/14 05:04:25;;;;;;;5.47;2.87;;;6.30;72.30;;;8.15;53.85;98001.97;4841693;29;20046;-60
2024/02/14 05:06:53;;;;;;;5.63;2.73;;;6.30;72.40;;;8.19;53.88;98006.03;4817590;29;20049;-61
2024/02/14 05:09:25;;;;;;;8.00;2.80;;;6.40;72.30;;;8.25;53.88;97999.34;4841632;29;20410;-60
2024/02/14 05:11:53;;;;;;;5.50;3.07;;;6.50;72.20;;;8.27;53.75;97998.22;4841548;29;20050;-60
2024/02/14 05:14:21;;;;;;;4.33;2.70;;;6.50;71.90;;;8.29;53.91;97998.09;4825428;29;20046;-60
2024/02/14 05:16:48;;;;;;;5.70;2.40;;;6.50;71.70;;;8.26;53.66;98007.16;4824472;29;20060;-60
2024/02/14 05:19:16;;;;;;;5.10;2.93;;;6.50;71.60;;;8.24;53.62;98016.25;4841474;29;20050;-60
2024/02/14 05:21:44;;;;;;;4.80;3.63;;;6.40;72.10;;;8.21;53.73;98016.50;4841272;29;20046;-60
2024/02/14 05:24:11;;;;;;;4.00;2.50;;;6.40;72.40;;;8.20;53.90;98017.47;4839797;29;20050;-60
2024/02/14 05:26:39;;;;;;;4.23;2.47;;;6.30;72.70;;;8.20;53.65;98015.69;4840573;29;20057;-60
2024/02/14 05:29:07;;;;;;;4.50;2.67;;;6.30;72.60;;;8.21;53.59;98006.72;4831976;29;20073;-60
2024/02/14 05:31:46;;;;;;;6.00;3.00;;;6.30;72.40;;;8.23;53.66;98006.59;4840581;29;20414;-60
2024/02/14 05:34:14;;;;;;;5.57;2.67;;;6.40;71.80;;;8.20;53.63;97999.75;4841175;29;20042;-60
2024/02/14 05:36:45;;;;;;;3.90;2.50;;;6.40;72.10;;;8.18;53.58;98001.72;4839467;29;20423;-59
2024/02/14 05:39:15;;;;;;;5.00;3.20;;;6.40;72.40;;;8.18;53.66;97998.19;4841304;29;20046;-60
2024/02/14 05:41:43;;;;;;;5.13;2.70;;;6.40;72.30;;;8.18;53.60;97996.41;4840961;29;20053;-60
2024/02/14 05:44:11;;;;;;;6.37;2.60;;;6.40;72.10;;;8.18;53.60;97995.56;4839578;29;20066;-60
2024/02/14 05:46:38;;;;;;;5.40;2.20;;;6.40;72.10;;;8.19;53.73;98003.38;4840402;29;20069;-59
2024/02/14 05:49:06;;;;;;;3.93;2.40;;;6.40;72.20;;;8.19;53.64;98007.84;4840816;29;20046;-60
2024/02/14 05:51:34;;;;;;;5.53;2.47;;;6.30;72.10;;;8.19;53.76;98006.03;4824833;29;20065;-60
2024/02/14 05:54:01;;;;;;;4.07;2.27;;;6.30;72.50;;;8.20;53.53;98010.38;4840921;29;20054;-60
2024/02/14 05:56:29;;;;;;;4.50;2.40;;;6.30;72.30;;;8.20;53.77;98002.41;4840238;29;20046;-60
2024/02/14 05:58:57;;;;;;;4.77;2.40;;;6.40;72.50;;;8.20;53.68;98007.72;4840679;29;20057;-60
2024/02/14 06:01:24;;;;;;;4.43;2.30;;;6.30;72.30;;;8.19;53.60;97999.91;4840721;29;20057;-59
2024/02/14 06:03:52;;;;;;;3.20;1.93;;;6.30;72.50;;;8.16;53.48;98006.31;4840598;29;20041;-60
2024/02/14 06:06:19;;;;;;;4.40;2.33;;;6.30;72.50;;;8.14;53.47;97997.63;4840421;29;20422;-60
2024/02/14 06:08:47;;;;;;;4.30;2.10;;;6.20;72.20;;;8.13;53.61;97995.16;4840626;29;20358;-60
2024/02/14 06:11:16;;;;;;;3.60;1.70;;;6.20;72.40;;;8.13;53.66;97995.97;4839865;29;20052;-60
2024/02/14 06:13:43;;;;;;;4.90;2.67;;;6.20;72.30;;;8.12;53.55;98004.91;4824311;29;20050;-60
2024/02/14 06:16:12;;;;;;;4.83;3.10;;;6.30;72.40;;;8.11;53.72;98000.59;4840451;29;20057;-60
2024/02/14 06:18:40;;;;;;;4.63;2.40;;;6.20;72.30;;;8.11;53.39;97997.94;4839032;29;20064;-60
2024/02/14 06:21:08;;;;;;;5.33;2.93;;;6.20;72.30;;;8.09;53.77;98006.00;4840610;29;20050;-60
2024/02/14 06:23:37;;;;;;;3.77;2.57;;;6.20;72.20;;;8.07;53.70;98010.63;4838648;29;20553;-60
2024/02/14 06:26:05;;;;;;;3.90;2.20;;;6.20;72.40;;;8.08;53.77;98008.78;4839900;29;20079;-60
2024/02/14 06:28:33;;;;;;;3.30;2.17;;;6.20;72.70;;;8.06;53.54;98018.72;4840233;29;20046;-60
2024/02/14 06:31:01;;;;;;;6.40;2.10;;;6.10;72.50;;;8.01;53.69;98016.47;4840193;29;20048;-60
2024/02/14 06:33:28;;;;;;;3.80;1.80;;;6.10;73.10;;;8.01;53.74;98016.47;4823654;29;20434;-59
2024/02/14 06:35:56;;;;;;;6.33;2.13;;;6.10;73.00;;;8.00;53.86;98022.72;4839693;29;20061;-60
2024/02/14 06:38:24;;;;;;;3.77;2.33;;;6.10;73.10;;;8.01;53.94;98015.63;4840240;29;20057;-59
2024/02/14 06:40:52;;;;;;;5.37;2.33;;;6.10;73.10;;;7.98;54.12;98024.69;4839102;29;20502;-60
2024/02/14 06:43:20;;;;;;;3.33;2.20;;;6.10;73.30;;;7.96;54.18;98028.47;4839838;29;20061;-61
2024/02/14 06:45:47;;;;;;;4.37;2.20;;;6.10;73.60;;;7.96;54.40;98026.63;4843487;29;20098;-60
2024/02/14 06:48:15;;;;;;;5.27;2.17;;;6.10;73.40;;;7.98;54.41;98027.34;4843782;29;20042;-60
2024/02/14 06:50:43;;;;;;;4.13;2.00;;;6.20;73.30;;;8.01;54.33;98036.84;4843902;29;20121;-60
2024/02/14 06:53:10;;;;;;;5.00;2.17;;;6.20;73.10;;;8.02;54.44;98033.22;4842277;29;20046;-60
2024/02/14 06:55:38;;;;;;;3.80;2.53;;;6.20;72.80;;;8.04;54.34;98029.44;4843469;29;20058;-60
2024/02/14 06:58:06;;;;;;;3.53;2.10;;;6.30;72.80;;;8.05;54.28;98027.66;4843638;29;20533;-61
2024/02/14 07:00:34;;;;;;;9.77;3.30;;;6.30;72.90;;;8.03;54.36;98024.28;4842154;29;20498;-60
2024/02/14 07:03:02;;;;;;;5.37;2.17;;;6.30;73.10;;;8.05;54.41;98032.94;4827347;29;20518;-60
2024/02/14 07:05:30;;;;;;;4.70;1.60;;;6.30;73.00;;;8.12;54.49;98039.38;4843247;29;20053;-60
2024/02/14 07:07:58;;;;;;;6.43;2.43;;;6.40;72.70;;;8.13;54.70;98037.56;4840746;29;20549;-60
2024/02/14 07:10:25;;;;;;;2.77;1.43;;;6.50;72.90;;;8.18;54.61;98036.19;4842640;29;20041;-60
2024/02/14 07:12:53;;;;;;;3.70;1.57;;;6.50;72.50;;;8.24;54.56;98037.47;4843408;29;20422;-60
2024/02/14 07:15:21;;;;;;;3.57;1.70;;;6.60;72.20;;;8.30;54.43;98050.19;4843221;29;20390;-60
2024/02/14 07:17:48;;;;;;;2.30;1.57;;;6.60;72.50;;;8.34;54.53;98040.97;4843386;29;20054;-60
2024/02/14 07:20:17;;;;;;;3.53;1.97;;;6.70;72.10;;;8.35;54.52;98052.41;4843525;29;20057;-61
2024/02/14 07:22:47;;;;;;;8.57;4.10;;;6.70;72.10;;;8.40;54.51;98050.19;4843328;29;20049;-60
2024/02/14 07:25:15;;;;;;;3.00;2.10;;;6.70;72.00;;;8.42;54.41;98054.41;4843089;29;20045;-60
2024/02/14 07:27:42;;;;;;;2.70;1.70;;;6.70;72.30;;;8.48;54.32;98060.97;4842812;29;20054;-60
2024/02/14 07:30:11;;;;;;;5.83;3.07;;;6.80;71.60;;;8.54;54.39;98057.78;4843360;29;20520;-60
2024/02/14 07:32:38;;;;;;;2.57;1.50;;;6.90;72.00;;;8.63;54.08;98053.47;4840997;29;20057;-59
2024/02/14 07:35:07;;;;;;;3.40;1.60;;;6.90;72.00;;;8.68;54.11;98059.19;4843123;29;20056;-60
2024/02/14 07:37:35;;;;;;;3.40;2.00;;;7.00;71.30;;;8.75;54.09;98067.44;4842866;29;20076;-59
2024/02/14 07:40:04;;;;;;;4.47;1.90;;;7.10;71.50;;;8.81;54.22;98066.88;4826212;29;20141;-58
2024/02/14 07:42:31;;;;;;;2.90;1.37;;;7.20;71.20;;;8.85;53.89;98070.91;4843098;29;20053;-59
2024/02/14 07:44:59;;;;;;;2.23;1.50;;;7.20;71.30;;;8.93;53.85;98075.53;4842776;29;20050;-60
2024/02/14 07:47:28;;;;;;;2.83;1.33;;;7.30;71.00;;;8.98;53.88;98070.66;4818735;29;20042;-60
2024/02/14 07:49:57;;;;;;;4.87;1.80;;;7.40;70.60;;;9.04;53.83;98064.78;4842926;29;20050;-59
2024/02/14 07:52:24;;;;;;;2.37;1.57;;;7.40;71.00;;;9.09;53.94;98081.09;4843080;29;20045;-59
2024/02/14 07:54:54;;;;;;;2.83;1.70;;;7.40;70.40;;;9.11;53.99;98087.13;4842387;29;20054;-60
2024/02/14 07:57:25;;;;;;;2.47;1.83;;;7.50;70.20;;;9.16;53.98;98089.34;4826097;29;20281;-60
2024/02/14 07:59:52;;;;;;;4.20;1.70;;;7.60;70.30;;;9.21;53.75;98087.13;4842576;29;20053;-60
2024/02/14 08:02:20;;;;;;;4.33;1.83;;;7.60;70.00;;;9.27;53.50;98090.03;4843204;29;20045;-60
2024/02/14 08:04:48;;;;;;;4.60;1.60;;;7.70;70.10;;;9.33;53.49;98088.63;4842574;29;20060;-60
2024/02/14 08:07:19;;;;;;;2.73;1.77;;;7.80;70.10;;;9.38;53.41;98089.06;4841833;29;20046;-60
2024/02/14 08:09:47;;;;;;;6.47;1.60;;;7.80;69.50;;;9.44;53.53;98090.28;4842463;29;20525;-61
2024/02/14 08:12:14;;;;;;;5.40;1.90;;;7.80;69.40;;;9.48;53.52;98088.19;4841803;29;20042;-60
2024/02/14 08:14:42;;;;;;;7.30;2.03;;;7.90;69.10;;;9.50;53.06;98089.72;4842555;29;20084;-60
2024/02/14 08:17:09;;;;;;;1.77;1.20;;;7.90;69.50;;;9.54;53.07;98085.81;4842155;29;20053;-60
2024/02/14 08:19:37;;;;;;;4.37;1.60;;;7.90;68.90;;;9.55;52.97;98078.66;4842301;29;20506;-60
2024/02/14 08:22:06;;;;;;;5.23;1.80;;;7.90;69.40;;;9.61;53.03;98080.72;4826123;29;20060;-60
2024/02/14 08:24:34;;;;;;;4.63;2.03;;;8.00;69.70;;;9.66;53.10;98084.63;4841093;29;20494;-60
2024/02/14 08:27:06;;;;;;;3.97;1.80;;;8.00;69.60;;;9.70;53.07;98092.34;4840771;29;20494;-61
2024/02/14 08:29:34;;;;;;;2.70;1.80;;;8.10;69.70;;;9.75;53.43;98095.38;4826635;29;20038;-61
2024/02/14 08:32:03;;;;;;;2.47;1.90;;;8.10;69.20;;;9.78;53.28;98103.06;4842138;29;20042;-60
2024/02/14 08:34:31;;;;;;;3.67;1.70;;;8.20;69.60;;;9.81;53.22;98102.81;4841961;29;20054;-61
2024/02/14 08:36:59;;;;;;;1.93;1.40;;;8.20;69.40;;;9.87;53.31;98107.53;4841583;29;20062;-61
2024/02/14 08:39:26;;;;;;;3.60;1.60;;;8.30;69.40;;;9.92;53.35;98110.56;4842288;29;20422;-61
2024/02/14 08:41:54;;;;;;;2.10;1.47;;;8.30;69.60;;;9.97;53.07;98110.16;4842118;29;20422;-61
2024/02/14 08:44:22;;;;;;;4.27;2.10;;;8.40;69.60;;;10.00;53.25;98105.38;4841910;29;20058;-61
2024/02/14 08:46:49;;;;;;;2.37;1.50;;;8.40;69.60;;;10.03;53.06;98105.06;4841512;29;20081;-61
2024/02/14 08:49:17;;;;;;;3.20;1.67;;;8.40;69.70;;;10.09;53.34;98106.31;4841778;29;20411;-61
2024/02/14 08:51:46;;;;;;;2.27;1.93;;;8.50;69.70;;;10.13;53.34;98104.19;4833057;29;20057;-61
2024/02/14 08:54:15;;;;;;;3.93;1.83;;;8.50;69.80;;;10.16;53.32;98102.09;4841795;29;20403;-61
2024/02/14 08:56:43;;;;;;;1.70;1.50;;;8.60;69.80;;;10.22;53.08;98104.16;4841532;29;20230;-60
2024/02/14 08:59:11;;;;;;;4.23;1.47;;;8.60;69.80;;;10.31;53.22;98101.63;4825523;29;20061;-61
2024/02/14 09:01:38;;;;;;;5.23;1.67;;;8.70;69.60;;;10.35;52.86;98111.84;4840343;29;20082;-61
2024/02/14 09:04:06;;;;;;;4.37;1.57;;;8.80;69.00;;;10.39;52.77;98104.38;4840914;29;20054;-61
2024/02/14 09:06:34;;;;;;;2.93;1.40;;;8.80;69.90;;;10.44;52.76;98105.59;4840419;29;20304;-60
2024/02/14 09:09:02;;;;;;;4.20;1.90;;;8.90;69.10;;;10.48;52.60;98110.63;4841664;29;20066;-61
2024/02/14 09:11:31;;;;;;;2.63;1.53;;;8.90;68.70;;;10.52;52.82;98112.84;4840950;29;20072;-61
2024/02/14 09:14:04;;;;;;;4.47;2.00;;;9.00;68.70;;;10.57;52.75;98117.75;4840476;29;20573;-60
2024/02/14 09:16:35;;;;;;;5.13;1.73;;;9.00;68.60;;;10.60;52.40;98115.63;4823586;29;20054;-61
2024/02/14 09:19:05;;;;;;;3.13;1.83;;;8.90;68.60;;;10.62;52.46;98112.78;4840590;29;20073;-61
2024/02/14 09:21:36;;;;;;;3.80;1.50;;;9.00;68.50;;;10.65;52.65;98112.50;4825792;29;20053;-61
2024/02/14 09:24:04;;;;;;;5.30;1.60;;;9.00;68.60;;;10.66;52.38;98114.16;4841452;29;20517;-61
2024/02/14 09:26:32;;;;;;;2.77;1.50;;;9.00;68.10;;;10.67;52.41;98113.19;4824609;29;20045;-61
2024/02/14 09:29:00;;;;;;;3.60;2.23;;;9.00;68.30;;;10.71;52.55;98113.72;4841367;29;20054;-63
2024/02/14 09:31:27;;;;;;;5.97;1.63;;;9.10;68.40;;;10.76;52.40;98104.28;4841510;29;20053;-61
2024/02/14 09:33:57;;;;;;;3.27;1.77;;;9.20;68.30;;;10.81;52.63;98099.31;4840863;29;20532;-62
2024/02/14 09:36:26;;;;;;;2.73;1.70;;;9.20;68.30;;;10.83;52.50;98096.53;4839477;29;20525;-61
2024/02/14 09:38:53;;;;;;;3.47;1.50;;;9.20;68.10;;;10.84;52.40;98098.22;4841298;29;20054;-62
2024/02/14 09:41:40;;;;;;;2.90;1.87;;;9.30;68.10;;;10.86;52.18;98098.03;4840873;29;20533;-61
2024/02/14 09:44:08;;;;;;;2.90;1.63;;;9.30;68.20;;;10.91;52.63;98099.25;4841085;29;20054;-61
2024/02/14 09:46:39;;;;;;;3.53;1.43;;;9.30;68.60;;;10.93;52.65;98107.09;4839598;29;20156;-61
2024/02/14 09:49:08;;;;;;;4.90;1.57;;;9.40;68.60;;;10.96;52.70;98102.31;4840981;29;20046;-61
2024/02/14 09:51:39;;;;;;;4.57;1.60;;;9.40;68.70;;;11.00;52.31;98113.50;4825123;29;20490;-60
2024/02/14 09:54:08;;;;;;;2.47;1.87;;;9.40;68.30;;;11.03;52.63;98102.53;4840691;29;20498;-60
2024/02/14 09:56:36;;;;;;;2.37;1.60;;;9.50;68.10;;;11.08;52.67;98102.91;4824526;29;20057;-61
2024/02/14 09:59:06;;;;;;;4.80;1.93;;;9.60;68.10;;;11.11;52.33;98097.28;4840842;29;20430;-61
2024/02/14 10:01:37;;;;;;;2.58;1.50;;;9.60;68.00;;;11.13;52.25;98089.16;4825307;29;20057;-60
2024/02/14 10:04:05;;;;;;;2.70;1.60;;;9.60;68.00;;;11.11;52.77;98089.28;4840616;29;20050;-59
2024/02/14 10:06:33;;;;;;;3.60;2.53;;;9.60;68.30;;;11.12;52.37;98084.78;4840383;29;20418;-60
2024/02/14 10:09:01;;;;;;;4.47;1.83;;;9.60;68.30;;;11.16;52.78;98091.50;4836260;29;20064;-60
2024/02/14 10:11:32;;;;;;;4.13;1.97;;;9.70;68.70;;;11.22;52.71;98089.06;4839920;29;20072;-60
2024/02/14 10:14:03;;;;;;;4.80;2.40;;;9.80;68.50;;;11.24;52.94;98083.56;4840666;29;20058;-60
2024/02/14 10:16:32;;;;;;;3.70;1.60;;;9.80;68.50;;;11.28;52.56;98097.41;4824669;29;20053;-59
2024/02/14 10:19:00;;;;;;;2.33;1.20;;;9.90;68.90;;;11.30;52.63;98096.28;4840367;29;20054;-59
2024/02/14 10:21:28;;;;;;;3.90;1.77;;;9.90;69.00;;;11.34;52.88;98100.31;4840750;29;20052;-60
2024/02/14 10:24:00;;;;;;;1.80;1.40;;;9.90;69.10;;;11.38;53.03;98099.00;4840316;29;20042;-59
2024/02/14 10:26:29;;;;;;;2.47;1.53;;;10.00;68.80;;;11.43;53.09;98094.03;4840148;29;20525;-60
2024/02/14 10:28:58;;;;;;;2.47;1.57;;;10.00;68.80;;;11.48;52.88;98090.09;4824263;29;20049;-59
2024/02/14 10:31:26;;;;;;;2.33;1.60;;;10.10;68.80;;;11.53;52.99;98090.44;4809145;29;20529;-59
2024/02/14 10:33:57;;;;;;;3.87;1.97;;;10.10;68.70;;;11.55;52.73;98083.94;4840332;29;20046;-59
2024/02/14 10:36:25;;;;;;;2.87;1.63;;;10.20;68.70;;;11.55;52.98;98094.59;4831276;29;20054;-60